Time;durP1;ratioP1;P1;durP2;ratioP2;P2;SDS_P1;SDS_P2;PMS_P1;PMS_P2;Temp;Humidity;BMP_temperature;BMP_pressure;BME280_temperature;BME280_humidity;BME280_pressure;Samples;Min_cycle;Max_cycle;Signal;HPM_P1;HPM_P2
2022/11/06 00:01:22;;;;;;;;;;;;;;;8.63;100.00;100408.25;5590060;31;33590;-75
2022/11/06 00:04:29;;;;;;;;;;;;;;;8.62;100.00;100409.22;5590104;31;35047;-74
2022/11/06 00:07:35;;;;;;;;;;;;;;;8.58;100.00;100405.25;5589644;31;34938;-74
2022/11/06 00:10:42;;;;;;;;;;;;;;;8.57;100.00;100408.88;5576161;31;35047;-74
2022/11/06 00:13:48;;;;;;;;;;;;;;;8.57;100.00;100411.50;5589788;31;34938;-75
2022/11/06 00:16:56;;;;;;;;;;;;;;;8.57;100.00;100405.38;5589658;31;34897;-75
2022/11/06 00:20:02;;;;;;;;;;;;;;;8.57;100.00;100415.97;5589760;31;34495;-75
2022/11/06 00:23:10;;;;;;;;;;;;;;;8.57;100.00;100421.25;5575310;31;34648;-75
2022/11/06 00:26:21;;;;;;;;;;;;;;;8.57;100.00;100414.16;5589718;31;34288;-74
2022/11/06 00:29:29;;;;;;;;;;;;;;;8.61;100.00;100410.25;5576345;31;34129;-74
2022/11/06 00:32:37;;;;;;;;;;;;;;;8.65;100.00;100410.75;5589552;31;34921;-74
2022/11/06 00:35:45;;;;;;;;;;;;;;;8.65;100.00;100410.75;5589400;31;34837;-75
2022/11/06 00:38:52;;;;;;;;;;;;;;;8.59;100.00;100408.72;5589395;31;34397;-75
2022/11/06 00:41:59;;;;;;;;;;;;;;;8.61;100.00;100404.94;5589319;31;34857;-73
2022/11/06 00:45:04;;;;;;;;;;;;;;;8.57;100.00;100410.66;5589301;31;34983;-74
2022/11/06 00:48:13;;;;;;;;;;;;;;;8.62;100.00;100411.03;5589250;31;34798;-75
2022/11/06 00:51:28;;;;;;;;;;;;;;;8.61;100.00;100414.69;5562946;31;34949;-73
2022/11/06 00:54:35;;;;;;;;;;;;;;;8.60;100.00;100418.31;5575058;31;34849;-74
2022/11/06 00:57:44;;;;;;;;;;;;;;;8.58;100.00;100412.34;5589045;31;34601;-73
2022/11/06 01:00:50;;;;;;;;;;;;;;;8.60;100.00;100413.87;5588853;31;34898;-73
2022/11/06 01:04:04;;;;;;;;;;;;;;;8.54;100.00;100414.47;5588919;31;34925;-73
2022/11/06 01:07:11;;;;;;;;;;;;;;;8.55;100.00;100418.78;5588586;31;34536;-74
2022/11/06 01:10:19;;;;;;;;;;;;;;;8.58;100.00;100409.69;5575421;31;34097;-73
2022/11/06 01:13:24;;;;;;;;;;;;;;;8.60;100.00;100413.87;5577948;31;34161;-72
2022/11/06 01:16:31;;;;;;;;;;;;;;;8.59;100.00;100425.41;5591327;31;34881;-73
2022/11/06 01:19:39;;;;;;;;;;;;;;;8.66;100.00;100415.91;5591422;31;34344;-73
2022/11/06 01:22:46;;;;;;;;;;;;;;;8.61;100.00;100414.69;5591506;31;34110;-74
2022/11/06 01:25:55;;;;;;;;;;;;;;;8.63;100.00;100418.00;5591784;31;34151;-73
2022/11/06 01:29:02;;;;;;;;;;;;;;;8.65;100.00;100423.97;5591281;31;34240;-74
2022/11/06 01:32:12;;;;;;;;;;;;;;;8.58;100.00;100418.47;5591295;31;34365;-73
2022/11/06 01:35:19;;;;;;;;;;;;;;;8.64;100.00;100428.44;5591300;31;34284;-73
2022/11/06 01:38:27;;;;;;;;;;;;;;;8.70;100.00;100419.06;5591188;31;34936;-73
2022/11/06 01:41:38;;;;;;;;;;;;;;;8.67;100.00;100428.13;5591295;31;34571;-73
2022/11/06 01:44:44;;;;;;;;;;;;;;;8.67;100.00;100419.34;5591217;31;34404;-74
2022/11/06 01:47:51;;;;;;;;;;;;;;;8.67;100.00;100422.00;5591167;31;34331;-74
2022/11/06 01:50:58;;;;;;;;;;;;;;;8.70;100.00;100424.34;5591063;31;34225;-74
2022/11/06 01:54:06;;;;;;;;;;;;;;;8.66;100.00;100423.84;5591094;31;34283;-74
2022/11/06 01:57:14;;;;;;;;;;;;;;;8.69;100.00;100420.88;5591099;31;35090;-74
2022/11/06 02:00:21;;;;;;;;;;;;;;;8.68;100.00;100424.50;5577288;31;34048;-74
2022/11/06 02:03:27;;;;;;;;;;;;;;;8.65;100.00;100423.97;5591373;31;34652;-73
2022/11/06 02:06:32;;;;;;;;;;;;;;;8.68;100.00;100429.78;5590900;31;34868;-74
2022/11/06 02:09:40;;;;;;;;;;;;;;;8.65;100.00;100426.63;5590905;31;35030;-75
2022/11/06 02:12:52;;;;;;;;;;;;;;;8.73;100.00;100422.22;5590950;31;34253;-75
2022/11/06 02:16:02;;;;;;;;;;;;;;;8.75;100.00;100432.66;5590848;31;34880;-74
2022/11/06 02:19:25;;;;;;;;;;;;;;;8.75;100.00;100429.16;5590876;31;34310;-74
2022/11/06 02:22:37;;;;;;;;;;;;;;;8.81;100.00;100439.12;5589800;31;34765;-75
2022/11/06 02:25:57;;;;;;;;;;;;;;;8.63;100.00;100434.69;5590864;31;34852;-75
2022/11/06 02:29:09;;;;;;;;;;;;;;;8.69;100.00;100442.03;5590776;31;34860;-75
2022/11/06 02:32:32;;;;;;;;;;;;;;;8.66;100.00;100444.16;5590928;31;34734;-75
2022/11/06 02:35:46;;;;;;;;;;;;;;;8.74;100.00;100438.91;5590764;31;34135;-74
2022/11/06 02:38:56;;;;;;;;;;;;;;;8.68;100.00;100443.00;5590635;31;34914;-75
2022/11/06 02:42:07;;;;;;;;;;;;;;;8.73;100.00;100447.84;5590513;31;34334;-75
2022/11/06 02:45:17;;;;;;;;;;;;;;;8.69;100.00;100454.41;5590665;31;34577;-73
2022/11/06 02:48:31;;;;;;;;;;;;;;;8.63;100.00;100450.56;5590646;31;34771;-72
2022/11/06 02:51:39;;;;;;;;;;;;;;;8.72;100.00;100462.88;5576449;31;34715;-75
2022/11/06 02:54:47;;;;;;;;;;;;;;;8.80;100.00;100454.19;5590432;31;34947;-72
2022/11/06 02:57:56;;;;;;;;;;;;;;;8.75;100.00;100458.25;5590516;31;34885;-73
2022/11/06 03:01:03;;;;;;;;;;;;;;;8.70;100.00;100467.50;5590591;31;34196;-73
2022/11/06 03:04:35;;;;;;;;;;;;;;;8.68;100.00;100464.16;5577092;31;34206;-74
2022/11/06 03:07:46;;;;;;;;;;;;;;;8.68;100.00;100472.09;5590211;31;34793;-73
2022/11/06 03:11:12;;;;;;;;;;;;;;;8.70;100.00;100464.03;5590474;31;34955;-73
2022/11/06 03:14:26;;;;;;;;;;;;;;;8.72;100.00;100467.31;5576153;31;35255;-73
2022/11/06 03:17:52;;;;;;;;;;;;;;;8.73;100.00;100471.63;5590696;31;34297;-74
2022/11/06 03:21:06;;;;;;;;;;;;;;;8.75;100.00;100479.44;5590251;31;34412;-74
2022/11/06 03:24:16;;;;;;;;;;;;;;;8.66;100.00;100475.88;5590166;31;34807;-72
2022/11/06 03:27:30;;;;;;;;;;;;;;;8.73;100.00;100480.41;5590216;31;34934;-72
2022/11/06 03:30:39;;;;;;;;;;;;;;;8.67;100.00;100488.09;5590534;31;34968;-73
2022/11/06 03:33:54;;;;;;;;;;;;;;;8.78;100.00;100485.22;5589775;31;34286;-72
2022/11/06 03:37:04;;;;;;;;;;;;;;;8.75;100.00;100495.28;5590164;31;34754;-72
2022/11/06 03:40:15;;;;;;;;;;;;;;;8.79;100.00;100502.78;5590201;31;34242;-73
2022/11/06 03:43:23;;;;;;;;;;;;;;;8.78;100.00;100494.97;5590068;31;34589;-74
2022/11/06 03:46:37;;;;;;;;;;;;;;;8.77;100.00;100507.38;5576964;31;34367;-73
2022/11/06 03:49:50;;;;;;;;;;;;;;;8.78;100.00;100495.81;5590114;31;34948;-73
2022/11/06 03:53:07;;;;;;;;;;;;;;;8.69;100.00;100500.22;5590063;31;34721;-73
2022/11/06 03:56:17;;;;;;;;;;;;;;;8.77;100.00;100501.25;5590073;31;34947;-74
2022/11/06 03:59:27;;;;;;;;;;;;;;;8.65;100.00;100501.50;5590033;31;34286;-76
2022/11/06 04:02:36;;;;;;;;;;;;;;;8.61;100.00;100502.78;5590106;31;34330;-74
2022/11/06 04:05:47;;;;;;;;;;;;;;;8.62;100.00;100514.19;5576672;31;34741;-74
2022/11/06 04:15:51;;;;;;;;;;;;;;;8.70;100.00;100508.97;5589778;31;34332;-74
2022/11/06 04:18:58;;;;;;;;;;;;;;;8.72;100.00;100513.12;5589872;31;34494;-73
2022/11/06 04:22:28;;;;;;;;;;;;;;;8.75;100.00;100512.00;5589820;31;34297;-73
2022/11/06 04:29:17;;;;;;;;;;;;;;;8.63;100.00;100521.97;5589755;31;34173;-74
2022/11/06 04:32:48;;;;;;;;;;;;;;;8.67;100.00;100510.09;5589578;31;34931;-73
2022/11/06 04:36:01;;;;;;;;;;;;;;;8.63;100.00;100510.56;5589783;31;34731;-73
2022/11/06 04:39:25;;;;;;;;;;;;;;;8.73;100.00;100509.50;5589491;31;34303;-74
2022/11/06 04:42:39;;;;;;;;;;;;;;;8.67;100.00;100515.37;5589475;31;34358;-73
2022/11/06 04:45:49;;;;;;;;;;;;;;;8.64;100.00;100517.50;5588664;31;34216;-72
2022/11/06 04:48:56;;;;;;;;;;;;;;;8.68;100.00;100508.28;5589273;31;34703;-74
2022/11/06 04:52:07;;;;;;;;;;;;;;;8.63;100.00;100513.19;5589169;31;35026;-73
2022/11/06 04:55:14;;;;;;;;;;;;;;;8.65;100.00;100509.44;5575067;31;34902;-73
2022/11/06 04:58:20;;;;;;;;;;;;;;;8.63;100.00;100511.41;5589147;31;34235;-72
2022/11/06 05:01:27;;;;;;;;;;;;;;;8.62;100.00;100509.72;5589244;31;34441;-72
2022/11/06 05:04:36;;;;;;;;;;;;;;;8.62;100.00;100509.72;5575827;31;34282;-72
2022/11/06 05:07:44;;;;;;;;;;;;;;;8.57;100.00;100522.56;5588706;31;34305;-73
2022/11/06 05:10:51;;;;;;;;;;;;;;;8.55;100.00;100511.31;5589029;31;34744;-72
2022/11/06 05:13:59;;;;;;;;;;;;;;;8.51;100.00;100522.38;5588894;31;34102;-73
2022/11/06 05:17:08;;;;;;;;;;;;;;;8.49;100.00;100519.84;5588894;31;34189;-74
2022/11/06 05:20:14;;;;;;;;;;;;;;;8.48;100.00;100523.47;5588862;31;34935;-73
2022/11/06 05:23:21;;;;;;;;;;;;;;;8.55;100.00;100529.00;5574321;31;34780;-71
2022/11/06 05:26:27;;;;;;;;;;;;;;;8.52;100.00;100527.47;5588746;31;34451;-72
2022/11/06 05:29:33;;;;;;;;;;;;;;;8.56;100.00;100533.31;5588592;31;34668;-72
2022/11/06 05:32:39;;;;;;;;;;;;;;;8.53;100.00;100539.72;5588508;31;34939;-73
2022/11/06 05:35:49;;;;;;;;;;;;;;;8.48;100.00;100535.87;5588516;31;34293;-73
2022/11/06 05:38:54;;;;;;;;;;;;;;;8.58;100.00;100545.37;5574342;31;35093;-72
2022/11/06 05:42:01;;;;;;;;;;;;;;;8.58;100.00;100544.56;5575287;31;34014;-74
2022/11/06 05:45:09;;;;;;;;;;;;;;;8.63;100.00;100551.06;5588212;31;34878;-72
2022/11/06 05:48:16;;;;;;;;;;;;;;;8.59;100.00;100556.81;5575040;31;34325;-72
2022/11/06 05:51:21;;;;;;;;;;;;;;;8.57;100.00;100564.88;5588524;31;34673;-72
2022/11/06 05:54:27;;;;;;;;;;;;;;;8.58;100.00;100555.97;5573810;31;35474;-72
2022/11/06 05:57:35;;;;;;;;;;;;;;;8.58;100.00;100558.63;5589773;31;34910;-72
2022/11/06 06:00:47;;;;;;;;;;;;;;;8.47;100.00;100568.59;5591018;31;34313;-73
2022/11/06 06:03:58;;;;;;;;;;;;;;;8.54;100.00;100575.75;5576988;31;35016;-73
2022/11/06 06:07:05;;;;;;;;;;;;;;;8.51;100.00;100578.72;5577356;31;34313;-74
2022/11/06 06:10:13;;;;;;;;;;;;;;;8.51;100.00;100576.06;5577528;31;34200;-73
2022/11/06 06:13:21;;;;;;;;;;;;;;;8.49;100.00;100578.03;5590941;31;34663;-72
2022/11/06 06:16:30;;;;;;;;;;;;;;;8.47;100.00;100584.47;5590805;31;34802;-73
2022/11/06 06:19:36;;;;;;;;;;;;;;;8.42;100.00;100582.25;5590785;31;34604;-73
2022/11/06 06:22:42;;;;;;;;;;;;;;;8.40;100.00;100597.44;5590820;31;34784;-73
2022/11/06 06:25:49;;;;;;;;;;;;;;;8.37;100.00;100595.09;5576770;31;35583;-72
2022/11/06 06:28:57;;;;;;;;;;;;;;;8.43;100.00;100601.56;5576629;31;34711;-74
2022/11/06 06:32:05;;;;;;;;;;;;;;;8.43;100.00;100607.69;5576746;31;35068;-73
2022/11/06 06:35:20;;;;;;;;;;;;;;;8.48;100.00;100613.37;5590873;31;34758;-73
2022/11/06 06:38:25;;;;;;;;;;;;;;;8.48;100.00;100616.00;5577171;31;35069;-72
2022/11/06 06:41:32;;;;;;;;;;;;;;;8.46;100.00;100620.63;5590719;31;34829;-72
2022/11/06 06:44:40;;;;;;;;;;;;;;;8.49;100.00;100619.50;5590574;31;34275;-73
2022/11/06 06:47:48;;;;;;;;;;;;;;;8.47;100.00;100624.91;5590605;31;34931;-73
2022/11/06 06:50:59;;;;;;;;;;;;;;;8.49;100.00;100625.62;5590543;31;34313;-73
2022/11/06 06:54:08;;;;;;;;;;;;;;;8.52;100.00;100624.50;5590545;31;34224;-73
2022/11/06 06:57:15;;;;;;;;;;;;;;;8.58;100.00;100637.94;5590877;31;34996;-74
2022/11/06 07:00:25;;;;;;;;;;;;;;;8.62;100.00;100641.13;5590470;31;34809;-73
2022/11/06 07:03:31;;;;;;;;;;;;;;;8.46;100.00;100644.44;5590437;31;34221;-73
2022/11/06 07:06:40;;;;;;;;;;;;;;;8.51;100.00;100650.13;5575891;31;34496;-73
2022/11/06 07:09:46;;;;;;;;;;;;;;;8.51;100.00;100652.75;5575660;31;35140;-74
2022/11/06 07:12:53;;;;;;;;;;;;;;;8.48;100.00;100641.63;5590578;31;34276;-73
2022/11/06 07:15:58;;;;;;;;;;;;;;;8.44;100.00;100635.81;5590227;31;34274;-74
2022/11/06 07:19:05;;;;;;;;;;;;;;;8.57;100.00;100646.84;5590290;31;34172;-73
2022/11/06 07:22:10;;;;;;;;;;;;;;;8.58;100.00;100653.81;5590169;31;34447;-74
2022/11/06 07:25:17;;;;;;;;;;;;;;;8.58;100.00;100650.34;5590086;31;34216;-74
2022/11/06 07:28:21;;;;;;;;;;;;;;;8.60;100.00;100649.22;5590241;31;34531;-73
2022/11/06 07:31:30;;;;;;;;;;;;;;;8.65;100.00;100651.41;5576528;31;35217;-73
2022/11/06 07:34:37;;;;;;;;;;;;;;;8.59;100.00;100655.47;5576134;31;34283;-74
2022/11/06 07:37:43;;;;;;;;;;;;;;;8.65;100.00;100665.47;5589982;31;34333;-73
2022/11/06 07:40:48;;;;;;;;;;;;;;;8.60;100.00;100664.25;5576171;31;34594;-74
2022/11/06 07:43:54;;;;;;;;;;;;;;;8.59;100.00;100655.47;5563268;31;34663;-74
2022/11/06 07:47:01;;;;;;;;;;;;;;;8.54;100.00;100662.19;5590163;31;34866;-73
2022/11/06 07:50:07;;;;;;;;;;;;;;;8.47;100.00;100659.28;5575256;31;32601;-73
2022/11/06 07:53:15;;;;;;;;;;;;;;;8.44;100.00;100666.69;5576220;31;32218;-73
2022/11/06 07:56:22;;;;;;;;;;;;;;;8.48;100.00;100673.34;5589894;31;34320;-72
2022/11/06 07:59:28;;;;;;;;;;;;;;;8.45;100.00;100663.91;5589736;31;34465;-72
2022/11/06 08:02:34;;;;;;;;;;;;;;;8.46;100.00;100668.22;5589929;31;34871;-72
2022/11/06 08:05:41;;;;;;;;;;;;;;;8.58;100.00;100663.56;5590007;31;34008;-73
2022/11/06 08:08:48;;;;;;;;;;;;;;;8.64;100.00;100665.62;5589857;31;34278;-75
2022/11/06 08:12:03;;;;;;;;;;;;;;;8.66;100.00;100667.16;5589743;31;34860;-73
2022/11/06 08:15:13;;;;;;;;;;;;;;;8.58;100.00;100674.97;5590041;31;34638;-73
2022/11/06 08:18:22;;;;;;;;;;;;;;;8.53;100.00;100669.28;5589793;31;34565;-71
2022/11/06 08:21:28;;;;;;;;;;;;;;;8.63;100.00;100677.16;5575616;31;34584;-73
2022/11/06 08:24:34;;;;;;;;;;;;;;;8.66;100.00;100677.72;5589459;31;34331;-71
2022/11/06 08:27:42;;;;;;;;;;;;;;;8.59;100.00;100678.44;5589463;31;34899;-71
2022/11/06 08:30:49;;;;;;;;;;;;;;;8.64;100.00;100670.91;5589765;31;34451;-71
2022/11/06 08:33:55;;;;;;;;;;;;;;;8.69;100.00;100673.94;5589621;31;34888;-71
2022/11/06 08:37:03;;;;;;;;;;;;;;;8.72;100.00;100681.56;5589394;31;34857;-72
2022/11/06 08:40:11;;;;;;;;;;;;;;;8.75;100.00;100683.94;5589324;31;34468;-72
2022/11/06 08:43:19;;;;;;;;;;;;;;;8.77;100.00;100681.94;5575265;31;34098;-72
2022/11/06 08:46:23;;;;;;;;;;;;;;;8.67;100.00;100681.19;5589314;31;34411;-71
2022/11/06 08:49:29;;;;;;;;;;;;;;;8.79;100.00;100674.72;5589273;31;34220;-71
2022/11/06 08:52:33;;;;;;;;;;;;;;;8.76;100.00;100682.13;5588855;31;34911;-72
2022/11/06 08:55:40;;;;;;;;;;;;;;;8.83;100.00;100683.19;5589055;31;35003;-72
2022/11/06 08:58:46;;;;;;;;;;;;;;;8.91;100.00;100683.25;5589010;31;34253;-71
2022/11/06 09:02:00;;;;;;;;;;;;;;;8.92;100.00;100683.12;5588633;31;35069;-72
2022/11/06 09:05:05;;;;;;;;;;;;;;;9.00;100.00;100690.31;5588938;31;34882;-72
2022/11/06 09:08:11;;;;;;;;;;;;;;;8.99;100.00;100686.84;5568234;32;34697;-71
2022/11/06 09:11:18;;;;;;;;;;;;;;;8.98;100.00;100673.75;5569140;32;34871;-71
2022/11/06 09:14:23;;;;;;;;;;;;;;;9.00;100.00;100682.38;5568373;32;35199;-71
2022/11/06 09:17:30;;;;;;;;;;;;;;;9.08;100.00;100677.16;5568276;32;34812;-71
2022/11/06 09:20:35;;;;;;;;;;;;;;;9.13;100.00;100674.87;5568914;32;34233;-71
2022/11/06 09:23:44;;;;;;;;;;;;;;;9.27;100.00;100663.75;5568916;32;34225;-71
2022/11/06 09:26:51;;;;;;;;;;;;;;;9.30;100.00;100666.09;5568807;32;34242;-71
2022/11/06 09:29:58;;;;;;;;;;;;;;;9.43;100.00;100665.72;5567738;32;34354;-71
2022/11/06 09:33:06;;;;;;;;;;;;;;;9.48;100.00;100666.09;5570770;32;34549;-71
2022/11/06 09:36:19;;;;;;;;;;;;;;;9.56;100.00;100672.28;5571386;32;34707;-71
2022/11/06 09:39:24;;;;;;;;;;;;;;;9.57;100.00;100673.12;5571272;32;34211;-71
2022/11/06 09:42:49;;;;;;;;;;;;;;;9.73;100.00;100667.09;5571099;32;34232;-70
2022/11/06 09:45:57;;;;;;;;;;;;;;;9.92;100.00;100673.00;5570308;32;34246;-70
2022/11/06 09:49:16;;;;;;;;;;;;;;;10.06;100.00;100670.78;5571013;32;34333;-70
2022/11/06 09:52:20;;;;;;;;;;;;;;;10.22;100.00;100676.19;5570151;32;36552;-71
2022/11/06 09:55:32;;;;;;;;;;;;;;;10.18;100.00;100667.72;5570349;32;35459;-70
2022/11/06 09:58:43;;;;;;;;;;;;;;;10.25;100.00;100673.25;5571171;32;34429;-70
2022/11/06 10:01:57;;;;;;;;;;;;;;;10.39;100.00;100665.53;5569895;32;34783;-70
2022/11/06 10:05:24;;;;;;;;;;;;;;;10.47;100.00;100667.34;5570285;32;34754;-70
2022/11/06 10:08:30;;;;;;;;;;;;;;;10.62;100.00;100660.44;5557194;32;35005;-70
2022/11/06 10:11:54;;;;;;;;;;;;;;;10.76;100.00;100661.66;5571250;32;34705;-70
2022/11/06 10:14:59;;;;;;;;;;;;;;;10.84;100.00;100657.19;5571052;32;34240;-70
2022/11/06 10:18:20;;;;;;;;;;;;;;;10.89;100.00;100657.53;5571110;32;34773;-70
2022/11/06 10:21:33;;;;;;;;;;;;;;;10.94;100.00;100651.72;5570252;32;35102;-70
2022/11/06 10:24:46;;;;;;;;;;;;;;;11.17;100.00;100651.94;5571191;32;34157;-72
2022/11/06 10:28:02;;;;;;;;;;;;;;;11.26;100.00;100654.44;5570050;32;35288;-72
2022/11/06 10:31:22;;;;;;;;;;;;;;;11.28;100.00;100654.25;5570691;32;34405;-71
2022/11/06 10:34:34;;;;;;;;;;;;;;;11.52;100.00;100656.91;5570026;32;34153;-70
2022/11/06 10:37:43;;;;;;;;;;;;;;;11.48;100.00;100654.75;5569902;32;35332;-70
2022/11/06 10:40:50;;;;;;;;;;;;;;;11.43;100.00;100654.41;5571008;32;34898;-70
2022/11/06 10:44:03;;;;;;;;;;;;;;;11.33;100.00;100657.25;5568749;32;34987;-70
2022/11/06 10:47:15;;;;;;;;;;;;;;;11.05;100.00;100645.28;5570013;32;34545;-70
2022/11/06 10:50:24;;;;;;;;;;;;;;;11.12;100.00;100646.28;5569984;32;34886;-70
2022/11/06 10:53:36;;;;;;;;;;;;;;;10.88;100.00;100639.12;5570724;32;34161;-70
2022/11/06 10:57:04;;;;;;;;;;;;;;;11.00;100.00;100642.28;5570717;32;34926;-70
2022/11/06 11:00:13;;;;;;;;;;;;;;;11.05;100.00;100632.00;5570661;32;34153;-70
2022/11/06 11:03:28;;;;;;;;;;;;;;;10.83;100.00;100628.16;5570757;32;34238;-70
2022/11/06 11:06:33;;;;;;;;;;;;;;;10.96;100.00;100620.56;5569869;32;32612;-70
2022/11/06 11:09:41;;;;;;;;;;;;;;;11.00;100.00;100618.38;5563527;32;35717;-69
2022/11/06 11:12:55;;;;;;;;;;;;;;;11.02;100.00;100619.06;5551040;32;34367;-70
2022/11/06 11:16:02;;;;;;;;;;;;;;;11.02;100.00;100622.56;5549226;32;34908;-71
2022/11/06 11:19:25;;;;;;;;;;;;;;;10.89;100.00;100616.91;5549798;32;35454;-69
2022/11/06 11:22:33;;;;;;;;;;;;;;;10.93;100.00;100620.88;5551234;32;34228;-70
2022/11/06 11:25:40;;;;;;;;;;;;;;;10.72;100.00;100618.69;5551150;32;34590;-71
2022/11/06 11:28:52;;;;;;;;;;;;;;;10.74;100.00;100611.41;5550478;32;34329;-70
2022/11/06 11:32:00;;;;;;;;;;;;;;;10.60;100.00;100619.97;5549833;32;34433;-71
2022/11/06 11:35:09;;;;;;;;;;;;;;;10.81;100.00;100617.72;5549794;32;35795;-70
2022/11/06 11:38:18;;;;;;;;;;;;;;;10.73;100.00;100617.69;5550284;32;34330;-71
2022/11/06 11:41:23;;;;;;;;;;;;;;;10.75;100.00;100614.88;5550334;32;34889;-70
2022/11/06 11:44:29;;;;;;;;;;;;;;;10.73;100.00;100609.75;5551139;32;34886;-70
2022/11/06 11:47:37;;;;;;;;;;;;;;;10.98;100.00;100607.13;5562870;32;35287;-71
2022/11/06 11:50:43;;;;;;;;;;;;;;;10.93;100.00;100601.47;5550373;32;34251;-71
2022/11/06 11:53:52;;;;;;;;;;;;;;;10.97;100.00;100602.81;5550307;32;34473;-70
2022/11/06 11:57:01;;;;;;;;;;;;;;;11.14;100.00;100604.44;5550808;32;34709;-70
2022/11/06 12:00:15;;;;;;;;;;;;;;;11.31;100.00;100595.50;5550492;32;34130;-70
2022/11/06 12:03:24;;;;;;;;;;;;;;;11.14;100.00;100604.44;5549750;32;34380;-70
2022/11/06 12:06:31;;;;;;;;;;;;;;;11.19;100.00;100607.44;5550752;32;34896;-69
2022/11/06 12:09:44;;;;;;;;;;;;;;;11.21;100.00;100608.12;5589402;31;34142;-69
2022/11/06 12:12:52;;;;;;;;;;;;;;;11.43;100.00;100601.28;5589270;31;35155;-70
2022/11/06 12:16:05;;;;;;;;;;;;;;;11.62;100.00;100599.09;5589067;31;34847;-70
2022/11/06 12:19:13;;;;;;;;;;;;;;;12.20;100.00;100595.28;5589683;31;34288;-69
2022/11/06 12:22:26;;;;;;;;;;;;;;;12.50;100.00;100601.62;5563246;31;34348;-69
2022/11/06 12:25:40;;;;;;;;;;;;;;;12.56;100.00;100600.94;5575354;31;34593;-70
2022/11/06 12:28:46;;;;;;;;;;;;;;;12.74;100.00;100595.34;5589633;31;34319;-70
2022/11/06 12:32:15;;;;;;;;;;;;;;;12.69;100.00;100608.34;5589013;31;34339;-69
2022/11/06 12:35:24;;;;;;;;;;;;;;;12.70;100.00;100610.00;5575624;31;35666;-69
2022/11/06 12:38:48;;;;;;;;;;;;;;;12.78;100.00;100604.66;5589606;31;34875;-70
2022/11/06 12:41:56;;;;;;;;;;;;;;;12.83;100.00;100602.28;5589375;31;34753;-70
2022/11/06 12:45:10;;;;;;;;;;;;;;;12.85;100.00;100601.09;5589122;31;34563;-70
2022/11/06 12:48:39;;;;;;;;;;;;;;;12.89;100.00;100599.72;5589085;31;34870;-69
2022/11/06 12:51:54;;;;;;;;;;;;;;;12.74;100.00;100606.81;5588877;31;34436;-70
2022/11/06 12:55:15;;;;;;;;;;;;;;;12.38;100.00;100606.53;5575033;31;32721;-69
2022/11/06 12:58:41;;;;;;;;;;;;;;;12.50;100.00;100604.28;5575482;31;34350;-69
2022/11/06 13:02:07;;;;;;;;;;;;;;;12.66;100.00;100606.03;5575953;31;34336;-69
2022/11/06 13:05:19;;;;;;;;;;;;;;;12.36;100.00;100610.34;5589018;31;34238;-69
2022/11/06 13:08:45;;;;;;;;;;;;;;;12.34;100.00;100609.72;5570201;32;34931;-69
2022/11/06 13:12:00;;;;;;;;;;;;;;;12.69;100.00;100617.16;5571936;32;34684;-70
2022/11/06 13:15:08;;;;;;;;;;;;;;;12.55;100.00;100613.41;5570965;32;34255;-69
2022/11/06 13:18:16;;;;;;;;;;;;;;;12.42;100.00;100613.16;5571045;32;34756;-69
2022/11/06 13:21:34;;;;;;;;;;;;;;;12.47;100.00;100617.97;5571014;32;34843;-69
2022/11/06 13:24:52;;;;;;;;;;;;;;;12.58;100.00;100617.56;5570958;32;35514;-69
2022/11/06 13:28:03;;;;;;;;;;;;;;;12.69;100.00;100619.81;5571422;32;34269;-69
2022/11/06 13:31:13;;;;;;;;;;;;;;;12.75;100.00;100607.66;5571381;32;34401;-69
2022/11/06 13:34:24;;;;;;;;;;;;;;;12.82;100.00;100606.78;5571319;32;35052;-70
2022/11/06 13:37:36;;;;;;;;;;;;;;;12.81;100.00;100612.28;5570709;32;34311;-69
2022/11/06 13:40:46;;;;;;;;;;;;;;;12.60;100.00;100616.37;5571414;32;34599;-70
2022/11/06 13:44:14;;;;;;;;;;;;;;;12.38;100.00;100617.19;5571283;32;34975;-70
2022/11/06 13:47:34;;;;;;;;;;;;;;;12.29;100.00;100599.59;5571429;32;34941;-69
2022/11/06 13:50:58;;;;;;;;;;;;;;;12.19;100.00;100606.97;5570965;32;34827;-69
2022/11/06 13:54:17;;;;;;;;;;;;;;;12.04;100.00;100606.00;5571400;32;34428;-69
2022/11/06 13:57:27;;;;;;;;;;;;;;;12.19;100.00;100602.47;5571119;32;34863;-70
2022/11/06 14:00:34;;;;;;;;;;;;;;;12.29;100.00;100594.28;5571138;32;34089;-70
2022/11/06 14:03:58;;;;;;;;;;;;;;;12.05;100.00;100589.87;5571133;32;34990;-69
2022/11/06 14:07:07;;;;;;;;;;;;;;;11.79;100.00;100589.31;5572839;31;34973;-70
2022/11/06 14:10:20;;;;;;;;;;;;;;;11.77;100.00;100585.97;5590755;31;34841;-69
2022/11/06 14:13:31;;;;;;;;;;;;;;;11.79;100.00;100586.66;5576935;31;34711;-69
2022/11/06 14:16:38;;;;;;;;;;;;;;;11.98;100.00;100588.91;5576360;31;34932;-71
2022/11/06 14:19:49;;;;;;;;;;;;;;;11.94;100.00;100582.28;5576712;31;33526;-70
2022/11/06 14:22:55;;;;;;;;;;;;;;;11.69;100.00;100578.00;5590482;31;35127;-70
2022/11/06 14:26:04;;;;;;;;;;;;;;;11.72;100.00;100580.31;5590274;31;34980;-70
2022/11/06 14:29:27;;;;;;;;;;;;;;;11.80;100.00;100588.31;5576722;31;34650;-70
2022/11/06 14:32:30;;;;;;;;;;;;;;;11.74;100.00;100589.81;5590707;31;34314;-70
2022/11/06 14:35:33;;;;;;;;;;;;;;;11.75;100.00;100586.16;5590540;31;34566;-70
2022/11/06 14:38:40;;;;;;;;;;;;;;;11.73;100.00;100579.34;5576724;31;35109;-70
2022/11/06 14:41:51;;;;;;;;;;;;;;;11.82;100.00;100588.12;5590506;31;34167;-69
2022/11/06 14:44:58;;;;;;;;;;;;;;;11.64;100.00;100583.81;5590333;31;34264;-69
2022/11/06 14:48:07;;;;;;;;;;;;;;;11.50;100.00;100584.53;5576296;31;34634;-69
2022/11/06 14:51:13;;;;;;;;;;;;;;;11.40;100.00;100589.19;5590336;31;34819;-69
2022/11/06 14:54:20;;;;;;;;;;;;;;;11.38;100.00;100590.34;5576212;31;35031;-69
2022/11/06 14:57:44;;;;;;;;;;;;;;;11.36;100.00;100589.69;5576462;31;35264;-69
2022/11/06 15:00:55;;;;;;;;;;;;;;;11.27;100.00;100591.53;5590454;31;34910;-69
2022/11/06 15:04:02;;;;;;;;;;;;;;;11.17;100.00;100593.53;5590450;31;34297;-69
2022/11/06 15:07:24;;;;;;;;;;;;;;;11.15;100.00;100591.03;5589925;31;34678;-70
2022/11/06 15:10:51;;;;;;;;;;;;;;;11.10;100.00;100587.19;5590022;31;34614;-70
2022/11/06 15:14:16;;;;;;;;;;;;;;;11.03;100.00;100591.53;5590184;31;34277;-69
2022/11/06 15:17:22;;;;;;;;;;;;;;;10.93;100.00;100594.34;5589683;31;34297;-69
2022/11/06 15:20:30;;;;;;;;;;;;;;;10.80;100.00;100596.63;5589867;31;34499;-69
2022/11/06 15:23:45;;;;;;;;;;;;;;;10.66;100.00;100600.75;5589984;31;34936;-70
2022/11/06 15:26:53;;;;;;;;;;;;;;;10.50;100.00;100605.22;5590251;31;34493;-69
2022/11/06 15:30:02;;;;;;;;;;;;;;;10.37;100.00;100603.84;5589214;31;34310;-70
2022/11/06 15:33:12;;;;;;;;;;;;;;;10.21;100.00;100601.16;5589825;31;34240;-69
2022/11/06 15:36:22;;;;;;;;;;;;;;;10.25;100.00;100604.31;5590086;31;34632;-70
2022/11/06 15:39:28;;;;;;;;;;;;;;;10.28;100.00;100607.44;5576207;31;33337;-69
2022/11/06 15:42:35;;;;;;;;;;;;;;;10.14;100.00;100602.72;5589909;31;34909;-70
2022/11/06 15:45:39;;;;;;;;;;;;;;;10.10;100.00;100595.25;5576034;31;35049;-70
2022/11/06 15:49:05;;;;;;;;;;;;;;;10.15;100.00;100604.41;5590023;31;35048;-70
2022/11/06 15:52:17;;;;;;;;;;;;;;;10.17;100.00;100605.09;5589772;31;34174;-70
2022/11/06 15:55:23;;;;;;;;;;;;;;;10.21;100.00;100606.44;5563096;31;35683;-70
2022/11/06 15:58:36;;;;;;;;;;;;;;;10.24;100.00;100606.13;5589718;31;34864;-70
2022/11/06 16:01:45;;;;;;;;;;;;;;;10.26;100.00;100603.31;5589590;31;34628;-70
2022/11/06 16:04:50;;;;;;;;;;;;;;;10.37;100.00;100605.66;5575588;31;35115;-70
2022/11/06 16:07:55;;;;;;;;;;;;;;;10.30;100.00;100604.66;5575065;31;34375;-70
2022/11/06 16:11:02;;;;;;;;;;;;;;;10.32;100.00;100608.78;5575671;31;35103;-70
2022/11/06 16:14:14;;;;;;;;;;;;;;;10.27;100.00;100604.94;5575509;31;34431;-70
2022/11/06 16:17:24;;;;;;;;;;;;;;;10.22;100.00;100608.09;5589653;31;34294;-70
2022/11/06 16:20:29;;;;;;;;;;;;;;;10.20;100.00;100611.91;5589352;31;34908;-70
2022/11/06 16:23:41;;;;;;;;;;;;;;;10.21;100.00;100609.09;5574733;31;33346;-70